Time;durP1;ratioP1;P1;durP2;ratioP2;P2;SDS_P1;SDS_P2;PMS_P1;PMS_P2;Temp;Humidity;BMP_temperature;BMP_pressure;BME280_temperature;BME280_humidity;BME280_pressure;Samples;Min_cycle;Max_cycle;Signal;HPM_P1;HPM_P2
2021/09/30 00:01:13;;;;;;;5.40;2.43;;;8.90;99.90;;;;;;5063604;28;20295;-68
2021/09/30 00:03:42;;;;;;;2.83;2.10;;;9.00;99.90;;;;;;5061962;28;21144;-68
2021/09/30 00:06:10;;;;;;;2.27;2.07;;;9.00;99.90;;;;;;5062586;28;20629;-68
2021/09/30 00:08:39;;;;;;;4.27;2.10;;;9.10;99.90;;;;;;5067627;28;20231;-68
2021/09/30 00:11:10;;;;;;;6.60;2.10;;;9.20;99.90;;;;;;5064909;28;20224;-68
2021/09/30 00:13:44;;;;;;;4.97;2.20;;;9.30;99.90;;;;;;5066529;28;20299;-69
2021/09/30 00:16:47;;;;;;;5.13;1.90;;;9.30;99.90;;;;;;5068358;28;20194;-69
2021/09/30 00:33:23;;;;;;;4.07;1.90;;;9.50;99.90;;;;;;5061117;28;20307;-69
2021/09/30 00:35:59;;;;;;;2.83;1.90;;;9.70;99.90;;;;;;5063836;28;20223;-68
2021/09/30 00:41:36;;;;;;;2.07;1.90;;;9.80;99.90;;;;;;5067826;28;20299;-68
2021/09/30 00:47:01;;;;;;;3.03;2.57;;;9.70;99.90;;;;;;5081203;28;20665;-68
2021/09/30 00:49:51;;;;;;;2.20;2.00;;;9.70;99.90;;;;;;5062897;28;20292;-68
2021/09/30 00:52:28;;;;;;;6.60;2.20;;;9.70;99.90;;;;;;5071556;28;20223;-68
2021/09/30 01:52:26;;;;;;;7.60;2.37;;;8.70;99.90;;;;;;5052607;28;20326;-68
2021/09/30 01:58:08;;;;;;;3.30;2.17;;;8.60;99.90;;;;;;5051707;28;20204;-68
2021/09/30 02:20:56;;;;;;;2.47;2.20;;;8.20;99.90;;;;;;4996877;28;20190;-68
2021/09/30 02:23:54;;;;;;;3.77;2.67;;;8.20;99.90;;;;;;5052399;28;20204;-68
2021/09/30 02:29:27;;;;;;;7.83;2.80;;;8.10;99.90;;;;;;5049850;28;20291;-68
2021/09/30 03:00:34;;;;;;;3.93;2.60;;;8.00;99.90;;;;;;5052556;28;20602;-68
2021/09/30 03:03:05;;;;;;;3.13;2.50;;;8.00;99.90;;;;;;5051930;28;20223;-68
2021/09/30 03:05:34;;;;;;;4.03;2.67;;;7.90;99.90;;;;;;5047582;28;20283;-68
2021/09/30 03:08:05;;;;;;;5.53;2.50;;;7.90;99.90;;;;;;5049640;28;20338;-68
2021/09/30 03:10:34;;;;;;;5.70;2.60;;;7.90;99.90;;;;;;5051141;28;20609;-67
2021/09/30 03:13:03;;;;;;;6.40;2.40;;;7.90;99.90;;;;;;5047770;28;20278;-68
2021/09/30 03:15:39;;;;;;;6.20;2.50;;;7.90;99.90;;;;;;5055123;28;20277;-68
2021/09/30 03:18:27;;;;;;;2.37;2.17;;;7.90;99.90;;;;;;5059177;28;20321;-68
2021/09/30 03:23:48;;;;;;;8.60;2.37;;;7.80;99.90;;;;;;5048197;28;20279;-68
2021/09/30 03:26:18;;;;;;;4.20;2.20;;;7.70;99.90;;;;;;5048383;28;20201;-68
2021/09/30 03:28:47;;;;;;;6.20;2.60;;;7.70;99.90;;;;;;5052126;28;21044;-68
2021/09/30 03:31:15;;;;;;;8.03;2.57;;;7.70;99.90;;;;;;5052435;28;20268;-68
2021/09/30 03:33:46;;;;;;;8.03;2.23;;;7.60;99.90;;;;;;5056991;28;20208;-68
2021/09/30 03:36:15;;;;;;;9.83;2.87;;;7.60;99.90;;;;;;5047215;28;20240;-68
2021/09/30 03:38:46;;;;;;;5.87;2.83;;;7.60;99.90;;;;;;5052367;28;20724;-67
2021/09/30 03:41:14;;;;;;;5.47;2.50;;;7.50;99.90;;;;;;5049958;28;20200;-68
2021/09/30 03:43:42;;;;;;;3.90;2.40;;;7.60;99.90;;;;;;5051405;28;20193;-68
2021/09/30 03:46:11;;;;;;;5.03;2.40;;;7.50;99.90;;;;;;5044932;28;20192;-68
2021/09/30 03:48:40;;;;;;;4.47;2.43;;;7.50;99.90;;;;;;5053455;28;20238;-68
2021/09/30 03:51:12;;;;;;;5.50;2.30;;;7.50;99.90;;;;;;5052297;28;20226;-67
2021/09/30 03:53:51;;;;;;;8.00;2.63;;;7.40;99.90;;;;;;5058894;28;20284;-68
2021/09/30 03:56:36;;;;;;;4.47;2.87;;;7.40;99.90;;;;;;5063362;28;20262;-68
2021/09/30 03:59:20;;;;;;;3.90;2.57;;;7.40;99.90;;;;;;5060848;28;20196;-68
2021/09/30 04:01:55;;;;;;;6.37;2.57;;;7.40;99.90;;;;;;5059745;28;20265;-68
2021/09/30 04:04:26;;;;;;;7.07;2.67;;;7.30;99.90;;;;;;5052118;28;20194;-68
2021/09/30 04:06:56;;;;;;;7.80;2.43;;;7.30;99.90;;;;;;5059633;28;20676;-68
2021/09/30 04:09:27;;;;;;;7.30;2.47;;;7.20;99.90;;;;;;5053000;28;20197;-68
2021/09/30 04:12:01;;;;;;;11.00;2.97;;;7.20;99.90;;;;;;5057274;28;20728;-68
2021/09/30 04:15:12;;;;;;;4.70;2.70;;;7.20;99.90;;;;;;5060760;28;20259;-68
2021/09/30 04:17:43;;;;;;;6.27;2.40;;;7.10;99.90;;;;;;5059311;28;20203;-68
2021/09/30 04:20:27;;;;;;;7.93;2.83;;;7.10;99.90;;;;;;5053031;28;20465;-68
2021/09/30 04:22:55;;;;;;;6.90;2.50;;;7.10;99.90;;;;;;5061422;28;20199;-68
2021/09/30 04:25:23;;;;;;;3.63;3.00;;;7.10;99.90;;;;;;5056771;28;20253;-67
2021/09/30 04:27:53;;;;;;;9.60;3.27;;;7.10;99.90;;;;;;5056081;28;20797;-68
2021/09/30 04:30:22;;;;;;;7.83;2.60;;;7.00;99.90;;;;;;5050676;28;20274;-68
2021/09/30 04:32:50;;;;;;;5.87;2.40;;;7.00;99.90;;;;;;5056568;28;20260;-67
2021/09/30 04:35:18;;;;;;;4.67;2.63;;;7.00;99.90;;;;;;5055433;28;20236;-68
2021/09/30 04:37:47;;;;;;;9.33;2.80;;;7.00;99.90;;;;;;5051603;28;20240;-68
2021/09/30 04:40:15;;;;;;;5.13;3.00;;;7.00;99.90;;;;;;5060458;28;20219;-68
2021/09/30 04:42:44;;;;;;;5.30;2.80;;;6.90;99.90;;;;;;5054398;28;20220;-68
2021/09/30 04:45:14;;;;;;;5.93;2.47;;;6.90;99.90;;;;;;5059269;28;20188;-68
2021/09/30 04:47:42;;;;;;;4.10;2.93;;;7.00;99.90;;;;;;5060253;28;20199;-67
2021/09/30 04:50:11;;;;;;;4.93;2.77;;;7.00;99.90;;;;;;5054781;28;20262;-68
2021/09/30 04:52:40;;;;;;;4.40;2.80;;;7.10;99.90;;;;;;5057586;28;20547;-67
2021/09/30 04:55:09;;;;;;;3.23;2.70;;;7.00;99.90;;;;;;5055835;28;20240;-68
2021/09/30 04:57:37;;;;;;;3.03;2.60;;;7.00;99.90;;;;;;5056664;28;20239;-67
2021/09/30 05:00:09;;;;;;;6.60;2.90;;;7.00;99.90;;;;;;5058365;28;20510;-68
2021/09/30 05:02:39;;;;;;;7.70;2.73;;;7.00;99.90;;;;;;5054440;28;20216;-67
2021/09/30 05:05:09;;;;;;;3.40;2.50;;;7.00;99.90;;;;;;5053448;28;20188;-68
2021/09/30 05:07:37;;;;;;;7.13;2.90;;;7.00;99.90;;;;;;5053420;28;20703;-67
2021/09/30 05:10:07;;;;;;;3.47;2.57;;;7.00;99.90;;;;;;5052731;28;20192;-68
2021/09/30 05:12:35;;;;;;;9.30;2.77;;;6.90;99.90;;;;;;5052285;28;20229;-67
2021/09/30 05:15:05;;;;;;;9.53;3.20;;;7.00;99.90;;;;;;5058930;28;20193;-68
2021/09/30 05:17:33;;;;;;;4.80;2.73;;;7.00;99.90;;;;;;5056908;28;21440;-68
2021/09/30 05:20:04;;;;;;;6.60;2.60;;;7.00;99.90;;;;;;5054556;28;20733;-68
2021/09/30 05:22:32;;;;;;;5.20;3.03;;;7.00;99.90;;;;;;5049982;28;20224;-67
2021/09/30 05:25:00;;;;;;;5.00;2.77;;;7.00;99.90;;;;;;5053048;28;20639;-68
2021/09/30 05:27:29;;;;;;;9.50;3.33;;;7.00;99.90;;;;;;5050307;28;20193;-68
2021/09/30 05:29:57;;;;;;;4.60;2.90;;;7.00;99.90;;;;;;5051833;28;20227;-68
2021/09/30 05:32:25;;;;;;;6.73;2.80;;;7.10;99.90;;;;;;5058884;28;20196;-67
2021/09/30 05:34:54;;;;;;;6.17;2.87;;;7.20;99.90;;;;;;5067144;28;20698;-67
2021/09/30 05:37:23;;;;;;;6.97;2.93;;;7.20;99.90;;;;;;5059973;28;21096;-68
2021/09/30 05:39:52;;;;;;;6.97;3.23;;;7.20;99.90;;;;;;5060358;28;20197;-68
2021/09/30 05:42:22;;;;;;;3.43;3.00;;;7.20;99.90;;;;;;5066431;28;20200;-68
2021/09/30 05:44:51;;;;;;;5.93;2.90;;;7.10;99.90;;;;;;5056544;28;20234;-68
2021/09/30 05:47:20;;;;;;;5.77;2.97;;;7.20;99.90;;;;;;5057980;28;20230;-68
2021/09/30 05:49:48;;;;;;;4.60;3.23;;;7.20;99.90;;;;;;5057082;28;20671;-68
2021/09/30 05:52:17;;;;;;;7.33;3.37;;;7.20;99.90;;;;;;5059220;28;20679;-68
2021/09/30 05:54:47;;;;;;;7.90;3.23;;;7.20;99.90;;;;;;5055512;28;20255;-67
2021/09/30 05:57:15;;;;;;;6.70;3.10;;;7.30;99.90;;;;;;5058922;28;20285;-68
2021/09/30 05:59:44;;;;;;;5.40;3.10;;;7.30;99.90;;;;;;5039392;28;20741;-67
2021/09/30 06:03:42;;;;;;;6.50;3.20;;;7.30;99.90;;;;;;5056590;28;20193;-67
2021/09/30 06:10:49;;;;;;;8.63;3.83;;;7.40;99.90;;;;;;5060586;28;20262;-67
2021/09/30 06:13:23;;;;;;;10.93;3.60;;;7.30;99.90;;;;;;5065490;28;20239;-67
2021/09/30 06:15:52;;;;;;;5.07;3.63;;;7.30;99.90;;;;;;5060461;28;20294;-67
2021/09/30 06:18:20;;;;;;;5.23;3.50;;;7.30;99.90;;;;;;5072708;28;20206;-67
2021/09/30 06:20:50;;;;;;;5.77;3.70;;;7.30;99.90;;;;;;5071844;28;20196;-67
2021/09/30 06:23:19;;;;;;;6.33;3.80;;;7.30;99.90;;;;;;5063420;28;20589;-67
2021/09/30 06:25:49;;;;;;;7.23;3.80;;;7.30;99.90;;;;;;5058716;28;20197;-67
2021/09/30 06:28:18;;;;;;;10.43;3.47;;;7.40;99.90;;;;;;5052294;28;20258;-68
2021/09/30 06:30:46;;;;;;;9.17;3.53;;;7.40;99.90;;;;;;5068318;28;20260;-68
2021/09/30 06:33:15;;;;;;;7.77;3.90;;;7.40;99.90;;;;;;5055037;28;20201;-68
2021/09/30 06:35:43;;;;;;;8.97;3.37;;;7.50;99.90;;;;;;5057343;28;20196;-68
2021/09/30 06:38:12;;;;;;;9.63;3.87;;;7.60;99.90;;;;;;5058770;28;20220;-67
2021/09/30 06:40:40;;;;;;;8.50;3.30;;;7.60;99.90;;;;;;5049431;28;20199;-67
2021/09/30 06:43:10;;;;;;;5.37;3.83;;;7.60;99.90;;;;;;5053907;28;20473;-67
2021/09/30 06:45:39;;;;;;;5.20;3.03;;;7.60;99.90;;;;;;5056488;28;20196;-68
2021/09/30 06:48:07;;;;;;;4.97;3.30;;;7.70;99.90;;;;;;5054191;28;20655;-67
2021/09/30 06:50:36;;;;;;;5.73;3.20;;;7.70;99.90;;;;;;5052571;28;20636;-67
2021/09/30 06:53:05;;;;;;;6.50;3.30;;;7.70;99.90;;;;;;5055918;28;20516;-68
2021/09/30 06:55:33;;;;;;;5.63;3.50;;;7.80;99.90;;;;;;5055632;28;20683;-67
2021/09/30 06:58:04;;;;;;;10.47;3.50;;;7.80;99.90;;;;;;5051435;28;20245;-68
2021/09/30 07:00:34;;;;;;;10.33;3.60;;;7.80;99.90;;;;;;5049633;28;20279;-68
2021/09/30 07:03:03;;;;;;;7.50;3.90;;;7.90;99.90;;;;;;5054292;28;20253;-68
2021/09/30 07:05:33;;;;;;;6.77;3.60;;;8.00;99.90;;;;;;5052416;28;20192;-68
2021/09/30 07:08:02;;;;;;;6.17;3.30;;;8.10;99.90;;;;;;5057359;28;20264;-68
2021/09/30 07:10:34;;;;;;;6.60;3.40;;;8.20;99.90;;;;;;5057942;28;20701;-68
2021/09/30 07:13:03;;;;;;;8.23;3.40;;;8.40;99.90;;;;;;5058499;28;20224;-68
2021/09/30 07:15:32;;;;;;;7.63;3.67;;;8.40;99.90;;;;;;5056866;28;20196;-68
2021/09/30 07:18:10;;;;;;;7.43;3.40;;;8.50;99.90;;;;;;5051680;28;20373;-68
2021/09/30 07:20:42;;;;;;;8.60;3.77;;;8.50;99.90;;;;;;5050118;28;20201;-68
2021/09/30 07:23:10;;;;;;;6.33;2.97;;;8.60;99.90;;;;;;5051130;28;20220;-68
2021/09/30 07:25:39;;;;;;;7.00;3.23;;;8.70;99.90;;;;;;5055369;28;20196;-68
2021/09/30 07:28:08;;;;;;;10.10;3.00;;;8.90;99.90;;;;;;5057901;28;20227;-68
2021/09/30 07:30:38;;;;;;;5.30;3.40;;;9.00;99.90;;;;;;5051184;28;20212;-67
2021/09/30 07:33:09;;;;;;;7.97;3.20;;;9.20;99.90;;;;;;5055276;28;20726;-68
2021/09/30 07:35:37;;;;;;;4.53;2.70;;;9.30;99.90;;;;;;5057247;28;20273;-68
2021/09/30 07:38:06;;;;;;;7.33;3.30;;;9.40;99.90;;;;;;5056422;28;21537;-68
2021/09/30 07:40:35;;;;;;;8.10;3.20;;;9.40;99.90;;;;;;5057692;28;20234;-67
2021/09/30 07:43:08;;;;;;;5.83;3.00;;;9.40;99.90;;;;;;5053376;28;20250;-67
2021/09/30 07:45:38;;;;;;;6.53;2.70;;;9.40;99.90;;;;;;5058467;28;20435;-68
2021/09/30 07:48:06;;;;;;;6.30;2.80;;;9.50;99.90;;;;;;5050899;28;20216;-68
2021/09/30 07:50:36;;;;;;;5.40;2.97;;;9.60;99.90;;;;;;5057867;28;20261;-67
2021/09/30 07:53:04;;;;;;;5.10;2.97;;;9.60;99.90;;;;;;5073134;28;20204;-67
2021/09/30 07:55:33;;;;;;;8.73;2.70;;;9.70;99.90;;;;;;5052360;28;20282;-68
2021/09/30 07:58:03;;;;;;;4.23;2.83;;;9.80;99.90;;;;;;5058169;28;20255;-68
2021/09/30 08:00:32;;;;;;;5.70;2.97;;;9.90;99.90;;;;;;5057708;28;20197;-68
2021/09/30 08:03:02;;;;;;;10.53;3.00;;;9.90;99.90;;;;;;5053044;28;20197;-68
2021/09/30 08:05:34;;;;;;;4.63;2.63;;;10.00;99.90;;;;;;5053074;28;20200;-68
2021/09/30 08:08:04;;;;;;;6.90;2.83;;;10.10;99.90;;;;;;5054762;28;20232;-68
2021/09/30 08:10:33;;;;;;;7.87;2.60;;;10.10;99.90;;;;;;5057409;28;20196;-68
2021/09/30 08:13:01;;;;;;;7.83;3.17;;;10.20;99.90;;;;;;5053616;28;20675;-68
2021/09/30 08:15:31;;;;;;;10.60;3.00;;;10.50;99.90;;;;;;5056434;28;20196;-68
2021/09/30 08:18:00;;;;;;;6.20;2.80;;;10.60;99.90;;;;;;5056889;28;20274;-68
2021/09/30 08:20:29;;;;;;;4.27;2.73;;;10.80;99.90;;;;;;5055713;28;20295;-67
2021/09/30 08:22:58;;;;;;;6.50;2.97;;;10.70;99.90;;;;;;5054863;28;20208;-68
2021/09/30 08:25:26;;;;;;;8.33;2.77;;;10.80;99.90;;;;;;5056495;28;20561;-68
2021/09/30 08:27:54;;;;;;;4.83;2.97;;;11.00;99.90;;;;;;5060543;28;20200;-68
2021/09/30 08:30:23;;;;;;;6.43;3.00;;;11.20;99.90;;;;;;5054167;28;20193;-68
2021/09/30 08:32:51;;;;;;;6.77;2.90;;;11.30;99.90;;;;;;5054594;28;20218;-67
2021/09/30 08:35:23;;;;;;;6.50;2.60;;;11.30;99.90;;;;;;5053276;28;20247;-69
2021/09/30 08:37:52;;;;;;;7.70;3.27;;;11.30;99.90;;;;;;5052487;28;20221;-67
2021/09/30 08:40:21;;;;;;;7.93;2.83;;;11.30;99.90;;;;;;5057560;28;20197;-68
2021/09/30 08:42:50;;;;;;;4.33;2.53;;;11.40;99.90;;;;;;5052503;28;20197;-67
2021/09/30 08:45:21;;;;;;;3.50;2.40;;;11.50;99.90;;;;;;5054703;28;20472;-68
2021/09/30 08:47:57;;;;;;;5.50;2.67;;;11.60;99.90;;;;;;5051323;28;20801;-68
2021/09/30 08:50:27;;;;;;;7.53;2.87;;;11.60;99.90;;;;;;5050299;28;20193;-68
2021/09/30 08:52:55;;;;;;;3.57;2.50;;;11.60;99.90;;;;;;5052428;28;20235;-68
2021/09/30 08:55:24;;;;;;;6.33;2.70;;;11.60;99.90;;;;;;5058970;28;20540;-68
2021/09/30 08:58:06;;;;;;;6.80;2.70;;;11.60;99.90;;;;;;5054196;28;20277;-68
2021/09/30 09:00:36;;;;;;;7.80;2.57;;;11.80;99.90;;;;;;5056824;28;20246;-67
2021/09/30 09:03:05;;;;;;;5.10;2.90;;;11.80;99.90;;;;;;5052858;28;20196;-68
2021/09/30 09:05:36;;;;;;;9.00;2.97;;;12.10;99.90;;;;;;5059678;28;20737;-68
2021/09/30 09:08:08;;;;;;;9.00;2.77;;;12.20;99.90;;;;;;5050659;28;20217;-67
2021/09/30 09:10:39;;;;;;;11.03;3.00;;;12.40;99.90;;;;;;5050930;28;20231;-67
2021/09/30 09:13:09;;;;;;;6.17;2.60;;;12.50;99.90;;;;;;5059859;28;20612;-68
2021/09/30 09:15:40;;;;;;;3.93;2.40;;;12.40;99.90;;;;;;5058605;28;20243;-69
2021/09/30 09:18:17;;;;;;;6.80;2.40;;;12.40;99.90;;;;;;5052851;28;20224;-67
2021/09/30 09:21:03;;;;;;;6.43;2.43;;;12.30;99.90;;;;;;5057702;28;20223;-68
2021/09/30 09:23:33;;;;;;;6.37;2.83;;;12.50;99.90;;;;;;5060935;28;20287;-68
2021/09/30 09:26:07;;;;;;;9.73;3.20;;;12.30;99.90;;;;;;5053624;28;20266;-67
2021/09/30 09:28:38;;;;;;;4.97;2.50;;;12.40;99.90;;;;;;5054024;28;20787;-68
2021/09/30 09:31:07;;;;;;;8.37;2.60;;;12.40;99.90;;;;;;5056021;28;20228;-67
2021/09/30 09:33:37;;;;;;;6.00;2.73;;;12.30;99.90;;;;;;5052845;28;20196;-68
2021/09/30 09:36:11;;;;;;;9.43;2.80;;;12.20;99.90;;;;;;5053079;28;20200;-67
2021/09/30 09:38:49;;;;;;;7.70;3.03;;;12.20;99.90;;;;;;5059718;28;20289;-68
2021/09/30 09:41:24;;;;;;;4.93;2.40;;;12.10;99.90;;;;;;5052576;28;20590;-68
2021/09/30 09:43:54;;;;;;;3.20;2.07;;;12.10;99.90;;;;;;5051402;28;20200;-67
2021/09/30 09:46:28;;;;;;;10.60;3.00;;;12.20;99.90;;;;;;5052790;28;20204;-67
2021/09/30 09:49:01;;;;;;;11.00;3.03;;;12.20;99.90;;;;;;5049594;28;20192;-67
2021/09/30 09:51:39;;;;;;;7.50;3.00;;;12.30;99.90;;;;;;5050768;28;20203;-67
2021/09/30 09:54:13;;;;;;;6.17;2.70;;;12.40;99.90;;;;;;5053608;28;20228;-67
2021/09/30 09:56:42;;;;;;;4.10;2.43;;;12.50;99.90;;;;;;5053850;28;20664;-68
2021/09/30 09:59:11;;;;;;;4.50;2.60;;;12.60;99.90;;;;;;5050130;28;20440;-68
2021/09/30 10:01:41;;;;;;;8.23;2.80;;;12.60;99.90;;;;;;5054613;28;20253;-67
2021/09/30 10:04:11;;;;;;;6.50;2.33;;;12.80;99.90;;;;;;5053620;28;20235;-67
2021/09/30 10:06:42;;;;;;;6.83;2.33;;;12.90;99.90;;;;;;5052121;28;20185;-67
2021/09/30 10:09:14;;;;;;;6.00;2.30;;;13.00;99.90;;;;;;5048793;28;20222;-68
2021/09/30 10:11:42;;;;;;;4.43;2.17;;;13.10;99.90;;;;;;5051058;28;20269;-67
2021/09/30 10:14:12;;;;;;;5.80;2.20;;;13.10;99.90;;;;;;5048956;28;20269;-67
2021/09/30 10:16:47;;;;;;;11.43;2.40;;;13.10;99.90;;;;;;5049645;28;20196;-67
2021/09/30 10:19:17;;;;;;;8.17;2.53;;;13.10;99.90;;;;;;5055733;28;20208;-68
2021/09/30 10:21:47;;;;;;;4.70;2.20;;;13.20;99.90;;;;;;5048172;28;20196;-67
2021/09/30 10:24:18;;;;;;;8.50;2.50;;;13.30;99.90;;;;;;5050416;28;20748;-67
2021/09/30 10:26:52;;;;;;;7.60;2.57;;;13.20;99.90;;;;;;5056293;28;20250;-68
2021/09/30 10:29:37;;;;;;;4.50;2.13;;;13.20;99.90;;;;;;5052048;28;20617;-68
2021/09/30 10:32:08;;;;;;;4.67;2.43;;;13.20;99.90;;;;;;5049523;28;20855;-67
2021/09/30 10:34:38;;;;;;;3.77;2.00;;;13.20;99.90;;;;;;5049943;28;20193;-67
2021/09/30 10:37:20;;;;;;;8.00;2.13;;;13.10;99.90;;;;;;5046862;28;20200;-67
2021/09/30 10:40:26;;;;;;;5.87;2.10;;;13.10;99.90;;;;;;5051055;28;20211;-68
2021/09/30 10:42:56;;;;;;;6.40;2.37;;;13.10;99.90;;;;;;5048293;28;20208;-67
2021/09/30 10:45:27;;;;;;;8.90;2.27;;;13.10;99.90;;;;;;5049037;28;20201;-67
2021/09/30 10:48:05;;;;;;;7.80;2.27;;;13.10;99.90;;;;;;5066607;28;20180;-67
2021/09/30 10:50:52;;;;;;;5.50;2.27;;;13.10;99.90;;;;;;5055748;28;20292;-67
2021/09/30 10:53:57;;;;;;;8.50;2.53;;;13.10;99.90;;;;;;5048034;28;20189;-67
2021/09/30 10:56:40;;;;;;;9.63;2.60;;;13.20;99.90;;;;;;5052921;28;20250;-67
2021/09/30 10:59:44;;;;;;;5.53;2.47;;;13.10;99.90;;;;;;5053579;28;20290;-67
2021/09/30 11:02:13;;;;;;;4.17;2.00;;;13.10;99.90;;;;;;5053274;28;20609;-68
2021/09/30 11:05:08;;;;;;;7.17;2.30;;;13.30;99.90;;;;;;5055145;28;20204;-67
2021/09/30 11:07:38;;;;;;;6.13;2.23;;;13.30;99.90;;;;;;5058833;28;20738;-67
2021/09/30 11:10:21;;;;;;;6.00;2.83;;;13.40;99.90;;;;;;5060102;28;20200;-67
2021/09/30 11:13:15;;;;;;;7.00;1.90;;;13.50;99.90;;;;;;5067633;28;20204;-68
2021/09/30 11:16:03;;;;;;;6.37;1.93;;;13.50;99.90;;;;;;5050155;28;20246;-67
2021/09/30 11:18:56;;;;;;;8.07;2.23;;;13.60;99.90;;;;;;5055496;28;20239;-67
2021/09/30 11:21:47;;;;;;;3.47;2.17;;;13.70;99.90;;;;;;5054467;28;20216;-67
2021/09/30 11:24:29;;;;;;;7.63;2.30;;;13.70;99.90;;;;;;5052423;28;20192;-67
2021/09/30 11:27:19;;;;;;;5.90;2.20;;;13.80;99.90;;;;;;5054729;28;20192;-67
2021/09/30 11:29:49;;;;;;;6.33;2.00;;;13.70;99.90;;;;;;5052081;28;20188;-67
2021/09/30 11:32:25;;;;;;;4.67;2.77;;;13.80;99.90;;;;;;5051000;28;20732;-67
2021/09/30 11:34:56;;;;;;;4.83;1.83;;;13.90;99.90;;;;;;5050149;28;20281;-67
2021/09/30 11:37:28;;;;;;;5.57;2.50;;;13.80;99.90;;;;;;5052383;28;20229;-67
2021/09/30 11:40:00;;;;;;;6.50;2.40;;;13.80;99.90;;;;;;5052372;28;20216;-67
2021/09/30 11:42:38;;;;;;;10.10;2.80;;;13.80;99.90;;;;;;5053247;28;20715;-67
2021/09/30 11:45:10;;;;;;;8.43;2.33;;;13.90;99.90;;;;;;5050772;28;20204;-67
2021/09/30 11:47:40;;;;;;;8.73;2.03;;;14.00;99.90;;;;;;5050477;28;20196;-67
2021/09/30 11:50:17;;;;;;;5.37;2.10;;;14.00;99.90;;;;;;5051560;28;20189;-68
2021/09/30 11:52:45;;;;;;;7.33;2.27;;;14.00;99.90;;;;;;5054116;28;20209;-67
2021/09/30 11:55:16;;;;;;;5.70;2.30;;;14.00;99.90;;;;;;5051765;28;20645;-67
2021/09/30 11:57:55;;;;;;;3.87;2.03;;;14.00;99.90;;;;;;5055162;28;20275;-68
2021/09/30 12:00:24;;;;;;;8.30;2.47;;;14.10;99.90;;;;;;5044862;28;20215;-67
2021/09/30 12:03:15;;;;;;;5.07;2.20;;;14.20;99.90;;;;;;5052188;28;20594;-67
2021/09/30 12:05:44;;;;;;;7.13;1.97;;;14.40;99.90;;;;;;5054623;28;20246;-67
2021/09/30 12:08:15;;;;;;;9.43;1.90;;;14.50;99.90;;;;;;5054931;28;20225;-67
2021/09/30 12:10:44;;;;;;;5.87;2.20;;;14.60;99.90;;;;;;5051780;28;20202;-67
2021/09/30 12:13:20;;;;;;;9.03;2.10;;;14.70;99.90;;;;;;5055409;28;20303;-67
2021/09/30 12:15:50;;;;;;;3.53;2.00;;;14.70;99.90;;;;;;5057425;28;20188;-68
2021/09/30 12:18:20;;;;;;;7.93;2.37;;;14.70;99.90;;;;;;5057336;28;20191;-67
2021/09/30 12:20:55;;;;;;;5.83;2.83;;;14.90;99.90;;;;;;5059497;28;20694;-68
2021/09/30 12:23:24;;;;;;;5.27;2.13;;;15.10;99.90;;;;;;5057434;28;20200;-68
2021/09/30 12:25:53;;;;;;;8.03;2.17;;;15.20;99.90;;;;;;5058162;28;20249;-68
2021/09/30 12:28:24;;;;;;;5.13;1.97;;;15.40;99.90;;;;;;5060035;28;20190;-67
2021/09/30 12:30:52;;;;;;;3.37;1.60;;;15.60;99.90;;;;;;5055615;28;20192;-67
2021/09/30 12:33:21;;;;;;;5.03;2.03;;;15.60;99.90;;;;;;5053719;28;20620;-68
2021/09/30 12:35:50;;;;;;;5.40;1.70;;;15.60;99.90;;;;;;5058957;28;20192;-68
2021/09/30 12:38:20;;;;;;;4.83;1.70;;;15.70;99.90;;;;;;5056271;28;20522;-68
2021/09/30 12:40:51;;;;;;;6.23;1.63;;;15.90;99.90;;;;;;5054743;28;20282;-67
2021/09/30 12:43:26;;;;;;;5.83;1.80;;;16.00;99.90;;;;;;5056766;28;20197;-68
2021/09/30 12:46:02;;;;;;;3.17;1.77;;;16.10;99.90;;;;;;5053297;28;20269;-67
2021/09/30 12:48:32;;;;;;;7.03;1.60;;;16.10;99.90;;;;;;5054885;28;20535;-67
2021/09/30 12:51:05;;;;;;;4.77;1.57;;;16.00;99.90;;;;;;5052449;28;20191;-66
2021/09/30 12:53:41;;;;;;;6.57;1.80;;;16.00;99.90;;;;;;5056575;28;20200;-68
2021/09/30 12:56:12;;;;;;;5.47;1.93;;;16.10;99.90;;;;;;5056715;28;20193;-68
2021/09/30 12:58:41;;;;;;;2.57;1.53;;;16.10;99.90;;;;;;5057653;28;20188;-67
2021/09/30 13:01:25;;;;;;;5.90;1.80;;;16.20;99.90;;;;;;5052185;28;20315;-67
2021/09/30 13:04:10;;;;;;;3.70;1.77;;;16.10;99.90;;;;;;5055553;28;20196;-67
2021/09/30 13:06:40;;;;;;;3.67;2.50;;;16.10;99.90;;;;;;5052839;28;20189;-67
2021/09/30 13:09:21;;;;;;;20.03;8.07;;;16.10;99.90;;;;;;5054333;28;20226;-68
2021/09/30 13:11:55;;;;;;;6.73;2.53;;;16.10;99.90;;;;;;5054263;28;21135;-66
2021/09/30 13:14:29;;;;;;;7.30;3.80;;;16.00;99.90;;;;;;5052600;28;20193;-67
2021/09/30 13:17:14;;;;;;;4.80;1.87;;;16.00;99.90;;;;;;5060448;28;20204;-67
2021/09/30 13:19:51;;;;;;;4.10;1.90;;;16.10;99.90;;;;;;5051399;28;20263;-67
2021/09/30 13:22:21;;;;;;;2.33;1.30;;;16.10;99.90;;;;;;5057142;28;20197;-68
2021/09/30 13:24:52;;;;;;;6.80;1.70;;;16.20;99.90;;;;;;5055978;28;20262;-67
2021/09/30 13:27:23;;;;;;;4.40;1.57;;;16.20;99.90;;;;;;5061323;28;20664;-67
2021/09/30 13:29:52;;;;;;;3.13;1.47;;;16.30;99.90;;;;;;5052605;28;20603;-67
2021/09/30 13:32:24;;;;;;;6.10;1.50;;;16.40;99.90;;;;;;5052476;28;20664;-68
2021/09/30 13:34:54;;;;;;;10.90;1.83;;;16.20;99.90;;;;;;5055080;28;20197;-68
2021/09/30 13:37:22;;;;;;;4.40;1.60;;;16.10;99.90;;;;;;5053494;28;20227;-68
2021/09/30 13:39:55;;;;;;;4.77;1.73;;;16.00;99.90;;;;;;5052256;28;20253;-68
2021/09/30 13:42:24;;;;;;;7.20;2.00;;;15.90;99.90;;;;;;5036336;28;20196;-67
2021/09/30 13:44:53;;;;;;;1.90;1.33;;;15.80;99.90;;;;;;5055517;28;20476;-67
2021/09/30 13:47:23;;;;;;;2.73;1.60;;;15.80;99.90;;;;;;5053465;28;20196;-67
2021/09/30 13:49:51;;;;;;;7.33;2.43;;;15.80;99.90;;;;;;5054764;28;20188;-68
2021/09/30 13:52:20;;;;;;;3.60;1.40;;;15.70;99.90;;;;;;5054225;28;20258;-67
2021/09/30 13:54:49;;;;;;;4.57;2.27;;;15.60;99.90;;;;;;5050713;28;20279;-67
2021/09/30 13:57:17;;;;;;;3.43;1.60;;;15.60;99.90;;;;;;5059481;28;20625;-68
2021/09/30 13:59:45;;;;;;;2.53;2.33;;;15.60;99.90;;;;;;5051953;28;20196;-67
2021/09/30 14:02:36;;;;;;;5.23;1.90;;;15.50;99.90;;;;;;5052477;28;20197;-67
2021/09/30 14:05:06;;;;;;;2.37;1.70;;;15.50;99.90;;;;;;5055723;28;20251;-66
2021/09/30 14:07:35;;;;;;;6.03;2.53;;;15.50;99.90;;;;;;5053221;28;20232;-66
2021/09/30 14:10:05;;;;;;;6.97;1.97;;;15.60;99.90;;;;;;5055787;28;20525;-67
2021/09/30 14:12:34;;;;;;;5.87;1.97;;;15.70;99.90;;;;;;5055350;28;20209;-67
2021/09/30 14:15:04;;;;;;;3.97;1.30;;;15.70;99.90;;;;;;5053913;28;20254;-68
2021/09/30 14:17:32;;;;;;;4.07;2.13;;;15.70;99.90;;;;;;5052586;28;20241;-67
2021/09/30 14:20:03;;;;;;;4.17;1.70;;;15.70;99.90;;;;;;5059280;28;20266;-67
2021/09/30 14:22:31;;;;;;;4.87;1.63;;;15.60;99.90;;;;;;5053873;28;20201;-67
2021/09/30 14:25:00;;;;;;;11.67;1.60;;;15.50;99.90;;;;;;5059644;28;20204;-67
2021/09/30 14:27:30;;;;;;;4.37;1.60;;;15.50;99.90;;;;;;5048754;28;20608;-68
2021/09/30 14:29:59;;;;;;;5.33;1.70;;;15.40;99.90;;;;;;5053521;28;20199;-67
2021/09/30 14:32:27;;;;;;;5.43;1.60;;;15.40;99.90;;;;;;5052431;28;20224;-67
2021/09/30 14:34:56;;;;;;;4.93;1.60;;;15.50;99.90;;;;;;5053038;28;20246;-67
2021/09/30 14:37:26;;;;;;;4.77;1.50;;;15.40;99.90;;;;;;5051485;28;20200;-67
2021/09/30 14:39:58;;;;;;;1.83;1.27;;;15.40;99.90;;;;;;5054957;28;20702;-67
2021/09/30 14:42:26;;;;;;;2.97;1.50;;;15.30;99.90;;;;;;5051403;28;20200;-67
2021/09/30 14:44:57;;;;;;;4.70;1.40;;;15.20;99.90;;;;;;5055486;28;20200;-67
2021/09/30 14:47:25;;;;;;;3.00;2.13;;;15.30;99.90;;;;;;5054444;28;20552;-67
2021/09/30 14:49:54;;;;;;;3.60;2.47;;;15.30;99.90;;;;;;5050919;28;20196;-67
2021/09/30 14:52:22;;;;;;;9.60;3.90;;;15.30;99.90;;;;;;5054985;28;20211;-67
2021/09/30 14:54:52;;;;;;;1.73;1.53;;;15.20;99.90;;;;;;5053283;28;20613;-67
2021/09/30 14:57:23;;;;;;;2.33;2.13;;;15.20;99.90;;;;;;5055305;28;20227;-67
2021/09/30 14:59:52;;;;;;;4.67;1.90;;;15.20;99.90;;;;;;5053651;28;20207;-66
2021/09/30 15:02:20;;;;;;;4.87;2.13;;;15.20;99.90;;;;;;5049796;28;20217;-68
2021/09/30 15:04:49;;;;;;;4.83;3.20;;;15.20;99.90;;;;;;5049701;28;20235;-67
2021/09/30 15:07:22;;;;;;;16.87;10.07;;;15.10;99.90;;;;;;5051801;28;20236;-67
2021/09/30 15:09:52;;;;;;;7.47;4.43;;;15.10;99.90;;;;;;5054305;28;20288;-68
2021/09/30 15:12:20;;;;;;;7.90;3.67;;;15.10;99.90;;;;;;5051120;28;20690;-68
2021/09/30 15:14:49;;;;;;;15.03;8.50;;;15.10;99.90;;;;;;5051776;28;20698;-68
2021/09/30 15:17:26;;;;;;;15.10;7.97;;;15.10;99.90;;;;;;5055687;28;20257;-67
2021/09/30 15:20:11;;;;;;;30.77;16.00;;;15.10;99.90;;;;;;5051887;28;20204;-67
2021/09/30 15:22:42;;;;;;;54.70;32.47;;;15.10;99.90;;;;;;5054832;28;20200;-67
2021/09/30 15:25:13;;;;;;;38.60;22.70;;;15.10;99.90;;;;;;5051827;28;20287;-67
2021/09/30 15:27:42;;;;;;;9.03;7.00;;;15.10;99.90;;;;;;5047032;28;20279;-68
2021/09/30 15:30:11;;;;;;;18.63;9.73;;;15.10;99.90;;;;;;5052164;28;20604;-68
2021/09/30 15:32:39;;;;;;;23.30;14.87;;;15.10;99.90;;;;;;5054698;28;20191;-67
2021/09/30 15:35:08;;;;;;;29.30;17.23;;;15.10;99.90;;;;;;5049299;28;20721;-67
2021/09/30 15:37:36;;;;;;;46.03;27.80;;;15.10;99.90;;;;;;5063223;28;20251;-67